createdAt,value
2018-03-18T00:01:09.940Z,88.20
2018-03-18T00:03:37.760Z,88.10
2018-03-18T00:06:05.739Z,88.00
2018-03-18T00:08:33.389Z,88.00
2018-03-18T00:11:01.019Z,87.90
2018-03-18T00:13:28.656Z,87.80
2018-03-18T00:15:56.251Z,87.80
2018-03-18T00:18:23.883Z,87.80
2018-03-18T00:20:51.466Z,88.00
2018-03-18T00:23:19.084Z,88.00
2018-03-18T00:25:46.682Z,87.80
2018-03-18T00:28:14.376Z,87.90
2018-03-18T00:30:42.035Z,88.00
2018-03-18T00:33:09.621Z,88.00
2018-03-18T00:35:37.225Z,87.90
2018-03-18T00:38:04.992Z,88.10
2018-03-18T00:40:32.595Z,88.00
2018-03-18T00:43:00.192Z,88.10
2018-03-18T00:45:27.813Z,88.10
2018-03-18T00:47:55.413Z,88.20
2018-03-18T00:50:23.064Z,88.40
2018-03-18T00:52:50.631Z,88.50
2018-03-18T00:55:18.277Z,88.30
2018-03-18T00:57:45.901Z,88.30
2018-03-18T01:00:13.525Z,88.40
2018-03-18T01:02:41.149Z,88.40
2018-03-18T01:05:08.767Z,88.20
2018-03-18T01:07:36.376Z,88.20
2018-03-18T01:10:04.034Z,88.40
2018-03-18T01:12:31.687Z,88.40
2018-03-18T01:14:59.343Z,88.40
2018-03-18T01:17:26.957Z,88.40
2018-03-18T01:19:54.629Z,88.20
2018-03-18T01:22:22.251Z,88.20
2018-03-18T01:24:49.896Z,88.40
2018-03-18T01:27:17.514Z,88.40
2018-03-18T01:29:45.142Z,88.40
2018-03-18T01:32:12.749Z,88.40
2018-03-18T01:34:40.381Z,88.50
2018-03-18T01:37:08.399Z,88.40
2018-03-18T01:39:36.055Z,88.40
2018-03-18T01:42:03.669Z,88.40
2018-03-18T01:44:31.318Z,88.50
2018-03-18T01:46:59.300Z,88.50
2018-03-18T01:49:27.092Z,88.50
2018-03-18T01:51:54.696Z,88.60
2018-03-18T01:54:22.334Z,88.50
2018-03-18T01:56:49.931Z,88.40
2018-03-18T01:59:17.933Z,88.60
2018-03-18T02:01:45.583Z,88.60
2018-03-18T02:04:13.190Z,88.80
2018-03-18T02:06:40.833Z,88.80
2018-03-18T02:09:08.477Z,88.80
2018-03-18T02:11:36.151Z,88.80
2018-03-18T02:14:03.765Z,88.70
2018-03-18T02:16:31.421Z,88.60
2018-03-18T02:18:59.426Z,88.60
2018-03-18T02:21:27.042Z,88.60
2018-03-18T02:23:54.690Z,88.60
2018-03-18T02:26:22.363Z,88.60
2018-03-18T02:28:50.005Z,88.50
2018-03-18T02:31:17.623Z,88.50
2018-03-18T02:33:45.240Z,88.50
2018-03-18T02:36:13.261Z,88.50
2018-03-18T02:38:40.907Z,88.50
2018-03-18T02:41:08.545Z,88.60
2018-03-18T02:43:36.163Z,88.60
2018-03-18T02:46:03.810Z,88.60
2018-03-18T02:48:31.374Z,88.50
2018-03-18T02:50:59.054Z,88.50
2018-03-18T02:53:26.683Z,88.50
2018-03-18T02:55:54.346Z,88.50
2018-03-18T02:58:21.945Z,88.50
2018-03-18T03:00:49.555Z,88.50
2018-03-18T03:03:17.180Z,88.60
2018-03-18T03:05:44.769Z,88.70
2018-03-18T03:08:12.397Z,88.70
2018-03-18T03:10:39.974Z,88.60
2018-03-18T03:13:07.623Z,88.50
2018-03-18T03:15:35.216Z,88.70
2018-03-18T03:18:02.864Z,88.70
2018-03-18T03:20:30.476Z,88.70
2018-03-18T03:22:58.080Z,88.90
2018-03-18T03:25:25.678Z,88.90
2018-03-18T03:27:53.275Z,88.90
2018-03-18T03:30:20.885Z,88.70
2018-03-18T03:32:48.515Z,88.70
2018-03-18T03:35:16.107Z,88.60
2018-03-18T03:37:43.728Z,88.60
2018-03-18T03:40:11.344Z,88.50
2018-03-18T03:42:38.972Z,88.50
2018-03-18T03:45:06.579Z,88.50
2018-03-18T03:47:34.193Z,88.60
2018-03-18T03:50:01.835Z,88.60
2018-03-18T03:52:29.438Z,88.70
2018-03-18T03:54:57.055Z,88.60
2018-03-18T03:57:24.677Z,88.60
2018-03-18T03:59:52.706Z,88.50
2018-03-18T04:02:20.327Z,88.50
2018-03-18T04:04:47.919Z,88.40
2018-03-18T04:07:15.552Z,88.50
2018-03-18T04:09:43.180Z,88.50
2018-03-18T04:12:10.785Z,88.40
2018-03-18T04:14:38.450Z,88.40
2018-03-18T04:17:06.083Z,88.40
2018-03-18T04:19:33.730Z,88.40
2018-03-18T04:22:01.313Z,88.30
2018-03-18T04:24:28.942Z,88.40
2018-03-18T04:26:56.959Z,88.40
2018-03-18T04:29:24.612Z,88.40
2018-03-18T04:31:52.218Z,88.30
2018-03-18T04:34:19.823Z,88.30
2018-03-18T04:36:47.395Z,88.20
2018-03-18T04:39:15.049Z,88.20
2018-03-18T04:41:42.624Z,88.20
2018-03-18T04:44:10.232Z,88.30
2018-03-18T04:46:37.836Z,88.30
2018-03-18T04:49:05.428Z,88.40
2018-03-18T04:51:33.023Z,88.30
2018-03-18T04:54:00.640Z,88.40
2018-03-18T04:56:28.272Z,88.30
2018-03-18T04:58:55.875Z,88.40
2018-03-18T05:01:23.899Z,88.40
2018-03-18T05:03:51.866Z,88.40
2018-03-18T05:06:19.505Z,88.40
2018-03-18T05:08:47.102Z,88.40
2018-03-18T05:11:14.741Z,88.30
2018-03-18T05:13:42.416Z,88.30
2018-03-18T05:16:10.036Z,88.20
2018-03-18T05:18:37.688Z,88.10
2018-03-18T05:21:05.316Z,88.10
2018-03-18T05:23:32.915Z,88.10
2018-03-18T05:26:00.574Z,88.10
2018-03-18T05:28:28.192Z,87.90
2018-03-18T05:30:55.802Z,87.80
2018-03-18T05:33:23.372Z,87.90
2018-03-18T05:35:51.021Z,87.90
2018-03-18T05:38:18.613Z,87.80
2018-03-18T05:40:46.285Z,87.60
2018-03-18T05:43:13.928Z,87.60
2018-03-18T05:45:41.580Z,87.30
2018-03-18T05:48:09.176Z,87.20
2018-03-18T05:50:36.819Z,87.30
2018-03-18T05:53:04.431Z,87.20
2018-03-18T05:55:32.041Z,87.10
2018-03-18T05:57:59.677Z,87.10
2018-03-18T06:00:27.279Z,87.10
2018-03-18T06:02:54.855Z,87.20
2018-03-18T06:05:22.449Z,87.10
2018-03-18T06:07:50.051Z,87.10
2018-03-18T06:10:17.627Z,87.10
2018-03-18T06:12:45.647Z,87.00
2018-03-18T06:15:13.255Z,87.00
2018-03-18T06:17:41.175Z,87.00
2018-03-18T06:20:08.760Z,86.90
2018-03-18T06:22:36.393Z,86.70
2018-03-18T06:25:03.987Z,86.90
2018-03-18T06:27:32.177Z,87.00
2018-03-18T06:30:03.777Z,87.00
2018-03-18T06:32:31.391Z,87.10
2018-03-18T06:34:58.981Z,87.00
2018-03-18T06:37:26.645Z,86.90
2018-03-18T06:39:54.219Z,86.80
2018-03-18T06:42:21.876Z,86.80
2018-03-18T06:44:49.434Z,86.90
2018-03-18T06:47:17.040Z,87.00
2018-03-18T06:49:45.046Z,86.80
2018-03-18T06:52:12.691Z,86.80
2018-03-18T06:54:40.301Z,86.80
2018-03-18T06:57:08.244Z,86.70
2018-03-18T06:59:36.852Z,86.70
2018-03-18T07:02:04.690Z,86.80
2018-03-18T07:04:32.615Z,86.80
2018-03-18T07:07:00.200Z,86.40
2018-03-18T07:09:27.805Z,86.50
2018-03-18T07:11:55.813Z,86.50
2018-03-18T07:14:24.239Z,86.30
2018-03-18T07:16:51.860Z,86.50
2018-03-18T07:19:19.469Z,86.60
2018-03-18T07:21:47.071Z,86.30
2018-03-18T07:24:14.751Z,85.70
2018-03-18T07:26:42.349Z,85.80
2018-03-18T07:29:10.375Z,85.60
2018-03-18T07:31:37.988Z,85.60
2018-03-18T07:34:05.589Z,85.50
2018-03-18T07:36:33.271Z,85.50
2018-03-18T07:39:00.900Z,85.10
2018-03-18T07:41:28.497Z,85.30
2018-03-18T07:43:56.144Z,85.10
2018-03-18T07:46:23.751Z,85.00
2018-03-18T07:48:51.748Z,85.20
2018-03-18T07:51:19.348Z,85.20
2018-03-18T07:53:47.962Z,85.10
2018-03-18T07:56:15.966Z,84.50
2018-03-18T07:58:43.633Z,84.50
2018-03-18T08:01:11.444Z,84.40
2018-03-18T08:03:39.471Z,84.50
2018-03-18T08:06:07.134Z,84.50
2018-03-18T08:08:34.793Z,84.20
2018-03-18T08:11:02.389Z,83.90
2018-03-18T08:13:30.033Z,83.80
2018-03-18T08:15:57.648Z,83.80
2018-03-18T08:18:25.235Z,83.50
2018-03-18T08:20:52.832Z,83.00
2018-03-18T08:23:20.821Z,83.10
2018-03-18T08:25:48.430Z,83.10
2018-03-18T08:28:16.002Z,82.80
2018-03-18T08:30:43.649Z,82.50
2018-03-18T08:33:17.444Z,82.70
2018-03-18T08:35:45.551Z,82.80
2018-03-18T08:38:13.523Z,82.40
2018-03-18T08:40:41.152Z,82.40
2018-03-18T08:43:08.792Z,82.30
2018-03-18T08:45:36.417Z,82.10
2018-03-18T08:48:03.991Z,81.60
2018-03-18T08:50:31.617Z,81.60
2018-03-18T08:52:59.292Z,81.40
2018-03-18T08:55:26.961Z,81.40
2018-03-18T08:57:54.609Z,80.90
2018-03-18T09:00:22.237Z,80.90
2018-03-18T09:02:49.846Z,81.10
2018-03-18T09:05:17.505Z,80.90
2018-03-18T09:07:45.123Z,80.60
2018-03-18T09:10:12.773Z,80.70
2018-03-18T09:12:40.393Z,80.10
2018-03-18T09:15:08.046Z,79.90
2018-03-18T09:17:36.064Z,79.40
2018-03-18T09:20:03.689Z,79.60
2018-03-18T09:22:31.296Z,79.80
2018-03-18T09:24:59.419Z,79.20
2018-03-18T09:27:27.776Z,79.30
2018-03-18T09:29:56.504Z,78.30
2018-03-18T09:32:24.985Z,78.30
2018-03-18T09:34:52.876Z,78.80
2018-03-18T09:37:20.488Z,78.50
2018-03-18T09:39:48.107Z,78.50
2018-03-18T09:42:15.713Z,77.90
2018-03-18T09:44:43.304Z,77.20
2018-03-18T09:47:10.931Z,77.10
2018-03-18T09:49:38.545Z,77.10
2018-03-18T09:52:06.196Z,77.00
2018-03-18T09:54:33.781Z,76.80
2018-03-18T09:57:01.399Z,76.60
2018-03-18T09:59:28.990Z,75.80
2018-03-18T10:01:56.605Z,75.50
2018-03-18T10:04:24.211Z,75.70
2018-03-18T10:06:51.817Z,75.70
2018-03-18T10:09:19.454Z,76.50
2018-03-18T10:11:47.096Z,76.50
2018-03-18T10:14:14.727Z,76.50
2018-03-18T10:16:42.760Z,76.60
2018-03-18T10:19:10.380Z,76.60
2018-03-18T10:21:38.020Z,77.10
2018-03-18T10:24:05.704Z,77.10
2018-03-18T10:26:33.280Z,76.50
2018-03-18T10:29:00.903Z,76.50
2018-03-18T10:31:28.508Z,75.90
2018-03-18T10:33:56.171Z,75.70
2018-03-18T10:36:23.839Z,75.60
2018-03-18T10:39:01.849Z,75.70
2018-03-18T10:41:29.425Z,75.70
2018-03-18T10:43:57.085Z,75.60
2018-03-18T10:46:24.696Z,75.80
2018-03-18T10:48:52.288Z,75.20
2018-03-18T10:51:19.909Z,74.80
2018-03-18T10:53:47.504Z,75.00
2018-03-18T10:56:15.100Z,75.70
2018-03-18T10:58:42.711Z,75.80
2018-03-18T11:01:10.314Z,75.10
2018-03-18T11:03:40.423Z,74.40
2018-03-18T11:06:08.028Z,74.30
2018-03-18T11:08:35.627Z,74.30
2018-03-18T11:11:03.236Z,74.50
2018-03-18T11:13:31.733Z,74.60
2018-03-18T11:15:59.334Z,74.50
2018-03-18T11:18:26.977Z,74.60
2018-03-18T11:20:54.637Z,74.40
2018-03-18T11:23:22.225Z,74.80
2018-03-18T11:25:50.223Z,74.80
2018-03-18T11:28:18.619Z,74.80
2018-03-18T11:30:46.280Z,74.60
2018-03-18T11:33:13.901Z,74.90
2018-03-18T11:35:41.589Z,75.10
2018-03-18T11:38:10.106Z,75.70
2018-03-18T11:40:37.731Z,76.00
2018-03-18T11:43:05.355Z,75.20
2018-03-18T11:45:32.957Z,74.90
2018-03-18T11:48:00.539Z,75.10
2018-03-18T11:50:28.203Z,75.70
2018-03-18T11:52:55.851Z,74.80
2018-03-18T11:55:23.465Z,75.00
2018-03-18T11:57:51.085Z,74.40
2018-03-18T12:00:18.985Z,74.50
2018-03-18T12:02:46.593Z,73.80
2018-03-18T12:05:14.220Z,73.60
2018-03-18T12:07:41.937Z,74.40
2018-03-18T12:10:09.528Z,74.00
2018-03-18T12:12:37.187Z,73.60
2018-03-18T12:15:05.036Z,73.50
2018-03-18T12:17:33.045Z,73.50
2018-03-18T12:20:01.008Z,73.50
2018-03-18T12:22:28.793Z,73.20
2018-03-18T12:24:56.513Z,74.10
2018-03-18T12:27:24.634Z,73.50
2018-03-18T12:29:52.286Z,73.70
2018-03-18T12:32:19.973Z,73.90
2018-03-18T12:34:47.541Z,73.90
2018-03-18T12:37:15.171Z,74.00
2018-03-18T12:39:54.482Z,73.70
2018-03-18T12:42:33.798Z,73.40
2018-03-18T12:45:01.412Z,73.80
2018-03-18T12:47:29.076Z,74.40
2018-03-18T12:49:56.682Z,74.50
2018-03-18T12:52:24.324Z,74.30
2018-03-18T12:54:51.908Z,74.10
2018-03-18T12:57:19.571Z,74.00
2018-03-18T12:59:47.474Z,74.40
2018-03-18T13:02:15.193Z,74.30
2018-03-18T13:04:43.064Z,74.80
2018-03-18T13:07:10.783Z,74.90
2018-03-18T13:09:38.471Z,74.90
2018-03-18T13:12:06.146Z,74.90
2018-03-18T13:14:33.838Z,74.60
2018-03-18T13:17:01.493Z,74.90
2018-03-18T13:19:29.283Z,74.90
2018-03-18T13:21:57.144Z,74.80
2018-03-18T13:24:24.994Z,75.10
2018-03-18T13:26:52.708Z,75.00
2018-03-18T13:29:20.304Z,74.60
2018-03-18T13:31:47.942Z,75.40
2018-03-18T13:34:15.516Z,75.00
2018-03-18T13:36:43.101Z,74.80
2018-03-18T13:39:10.717Z,75.10
2018-03-18T13:41:38.301Z,75.70
2018-03-18T13:44:05.911Z,75.50
2018-03-18T13:46:33.491Z,75.90
2018-03-18T13:49:01.288Z,75.80
2018-03-18T13:51:29.907Z,75.70
2018-03-18T13:53:59.520Z,75.50
2018-03-18T13:56:27.508Z,75.50
2018-03-18T13:58:56.248Z,75.40
2018-03-18T14:01:23.855Z,75.50
2018-03-18T14:03:59.117Z,75.70
2018-03-18T14:06:26.709Z,75.90
2018-03-18T14:08:54.779Z,75.80
2018-03-18T14:11:34.086Z,75.80
2018-03-18T14:14:01.715Z,75.60
2018-03-18T14:16:29.323Z,75.80
2018-03-18T14:18:56.956Z,76.00
2018-03-18T14:21:24.615Z,75.90
2018-03-18T14:23:52.228Z,75.90
2018-03-18T14:26:19.847Z,76.00
2018-03-18T14:28:47.479Z,76.30
2018-03-18T14:31:15.077Z,76.30
2018-03-18T14:33:48.553Z,76.30
2018-03-18T14:36:16.145Z,76.30
2018-03-18T14:38:43.748Z,76.50
2018-03-18T14:41:11.351Z,76.80
2018-03-18T14:43:38.988Z,76.50
2018-03-18T14:46:06.647Z,76.00
2018-03-18T14:48:34.304Z,76.20
2018-03-18T14:51:01.917Z,76.20
2018-03-18T14:53:34.981Z,76.40
2018-03-18T14:56:02.565Z,76.50
2018-03-18T14:58:31.474Z,76.40
2018-03-18T15:00:59.393Z,76.40
2018-03-18T15:03:28.104Z,75.80
2018-03-18T15:05:55.874Z,76.20
2018-03-18T15:08:23.616Z,76.30
2018-03-18T15:10:51.655Z,76.60
2018-03-18T15:13:19.383Z,76.60
2018-03-18T15:15:47.085Z,76.50
2018-03-18T15:18:14.704Z,76.50
2018-03-18T15:20:42.300Z,76.50
2018-03-18T15:23:09.962Z,76.80
2018-03-18T15:25:37.612Z,76.90
2018-03-18T15:28:05.268Z,76.80
2018-03-18T15:30:32.913Z,77.20
2018-03-18T15:33:00.491Z,77.30
2018-03-18T15:35:29.314Z,76.90
2018-03-18T15:37:58.287Z,77.20
2018-03-18T15:40:25.906Z,77.20
2018-03-18T15:42:59.668Z,77.20
2018-03-18T15:45:27.732Z,77.30
2018-03-18T15:47:55.312Z,77.30
2018-03-18T15:50:23.758Z,77.60
2018-03-18T15:52:51.371Z,77.80
2018-03-18T15:55:18.980Z,77.60
2018-03-18T15:57:46.592Z,77.70
2018-03-18T16:00:14.432Z,77.40
2018-03-18T16:02:42.020Z,77.40
2018-03-18T16:05:10.943Z,77.60
2018-03-18T16:07:38.607Z,77.80
2018-03-18T16:10:06.247Z,77.60
2018-03-18T16:12:33.823Z,77.70
2018-03-18T16:15:01.407Z,77.40
2018-03-18T16:17:29.399Z,77.40
2018-03-18T16:19:56.996Z,77.40
2018-03-18T16:22:24.614Z,78.00
2018-03-18T16:24:52.243Z,78.20
2018-03-18T16:27:19.870Z,78.30
2018-03-18T16:29:59.279Z,78.10
2018-03-18T16:32:26.887Z,78.20
2018-03-18T16:34:54.557Z,78.40
2018-03-18T16:37:22.177Z,78.30
2018-03-18T16:39:49.766Z,78.40
2018-03-18T16:42:17.421Z,78.40
2018-03-18T16:44:45.063Z,78.50
2018-03-18T16:47:12.688Z,78.60
2018-03-18T16:49:40.293Z,78.20
2018-03-18T16:52:08.300Z,78.60
2018-03-18T16:54:36.445Z,78.50
2018-03-18T16:57:04.746Z,78.50
2018-03-18T16:59:32.580Z,78.60
2018-03-18T17:02:01.424Z,78.90
2018-03-18T17:04:29.049Z,79.30
2018-03-18T17:06:56.684Z,78.70
2018-03-18T17:09:24.286Z,78.80
2018-03-18T17:11:51.921Z,78.70
2018-03-18T17:14:19.501Z,78.50
2018-03-18T17:16:47.123Z,78.70
2018-03-18T17:19:14.737Z,78.50
2018-03-18T17:21:42.378Z,78.60
2018-03-18T17:24:10.009Z,78.60
2018-03-18T17:26:37.753Z,78.70
2018-03-18T17:29:05.415Z,79.20
2018-03-18T17:31:33.082Z,78.80
2018-03-18T17:34:00.700Z,78.60
2018-03-18T17:36:28.283Z,79.20
2018-03-18T17:38:55.903Z,79.40
2018-03-18T17:41:23.500Z,79.80
2018-03-18T17:43:51.674Z,78.90
2018-03-18T17:46:42.001Z,79.20
2018-03-18T17:49:21.428Z,79.10
2018-03-18T17:52:00.806Z,79.20
2018-03-18T17:54:40.300Z,79.10
2018-03-18T17:57:07.935Z,79.30
2018-03-18T17:59:35.530Z,79.50
2018-03-18T18:02:03.091Z,79.40
2018-03-18T18:04:30.709Z,79.20
2018-03-18T18:06:58.535Z,79.20
2018-03-18T18:09:26.181Z,79.10
2018-03-18T18:11:53.905Z,79.20
2018-03-18T18:14:21.544Z,78.90
2018-03-18T18:16:49.199Z,78.80
2018-03-18T18:19:16.817Z,78.80
2018-03-18T18:21:44.416Z,78.80
2018-03-18T18:24:12.060Z,78.80
2018-03-18T18:26:40.083Z,78.90
2018-03-18T18:29:07.689Z,78.90
2018-03-18T18:31:35.269Z,78.70
2018-03-18T18:34:03.122Z,78.60
2018-03-18T18:36:31.665Z,78.60
2018-03-18T18:39:00.720Z,78.60
2018-03-18T18:41:29.351Z,78.40
2018-03-18T18:43:57.633Z,78.50
2018-03-18T18:46:25.313Z,78.70
2018-03-18T18:48:53.222Z,78.60
2018-03-18T18:51:22.131Z,78.70
2018-03-18T18:53:49.850Z,78.70
2018-03-18T18:56:17.509Z,78.60
2018-03-18T18:58:45.108Z,78.70
2018-03-18T19:01:12.755Z,78.60
2018-03-18T19:03:40.410Z,78.70
2018-03-18T19:06:08.057Z,78.70
2018-03-18T19:08:35.883Z,78.80
2018-03-18T19:11:03.572Z,78.90
2018-03-18T19:13:31.164Z,78.90
2018-03-18T19:15:58.788Z,78.80
2018-03-18T19:18:26.398Z,78.70
2018-03-18T19:20:54.241Z,78.80
2018-03-18T19:23:22.062Z,78.90
2018-03-18T19:25:49.684Z,78.90
2018-03-18T19:28:17.294Z,78.90
2018-03-18T19:30:45.193Z,78.90
2018-03-18T19:33:12.777Z,78.80
2018-03-18T19:35:40.392Z,78.90
2018-03-18T19:38:07.969Z,78.90
2018-03-18T19:40:35.637Z,78.80
2018-03-18T19:43:03.260Z,79.30
2018-03-18T19:45:30.900Z,78.90
2018-03-18T19:47:58.512Z,79.30
2018-03-18T19:50:27.297Z,79.30
2018-03-18T19:52:55.208Z,79.30
2018-03-18T19:55:22.965Z,79.50
2018-03-18T19:57:50.546Z,79.10
2018-03-18T20:00:18.161Z,78.80
2018-03-18T20:02:45.773Z,79.50
2018-03-18T20:05:13.562Z,79.50
2018-03-18T20:07:41.146Z,79.40
2018-03-18T20:10:08.753Z,79.40
2018-03-18T20:12:36.367Z,79.40
2018-03-18T20:15:04.013Z,79.30
2018-03-18T20:17:33.847Z,79.50
2018-03-18T20:20:01.468Z,79.30
2018-03-18T20:22:29.139Z,79.50
2018-03-18T20:24:56.738Z,79.60
2018-03-18T20:27:24.373Z,79.50
2018-03-18T20:29:52.042Z,79.60
2018-03-18T20:32:19.663Z,79.70
2018-03-18T20:34:47.273Z,79.40
2018-03-18T20:37:15.424Z,79.70
2018-03-18T20:39:43.191Z,79.70
2018-03-18T20:42:11.031Z,79.50
2018-03-18T20:44:38.641Z,79.60
2018-03-18T20:47:06.452Z,79.50
2018-03-18T20:49:35.021Z,79.30
2018-03-18T20:52:03.168Z,79.50
2018-03-18T20:54:30.768Z,79.70
2018-03-18T20:56:58.423Z,79.70
2018-03-18T20:59:26.042Z,79.50
2018-03-18T21:01:54.528Z,79.60
2018-03-18T21:04:22.122Z,79.20
2018-03-18T21:06:49.719Z,79.30
2018-03-18T21:09:17.564Z,79.40
2018-03-18T21:11:45.308Z,79.50
2018-03-18T21:14:12.905Z,79.50
2018-03-18T21:16:40.506Z,79.60
2018-03-18T21:19:08.187Z,79.60
2018-03-18T21:21:35.808Z,79.60
2018-03-18T21:24:03.410Z,79.70
2018-03-18T21:26:31.064Z,79.50
2018-03-18T21:28:58.901Z,79.90
2018-03-18T21:31:27.649Z,79.90
2018-03-18T21:33:55.381Z,79.90
2018-03-18T21:36:23.837Z,79.90
2018-03-18T21:38:51.518Z,79.70
2018-03-18T21:41:19.106Z,79.90
2018-03-18T21:43:46.868Z,79.90
2018-03-18T21:46:14.551Z,79.90
2018-03-18T21:48:42.929Z,79.70
2018-03-18T21:51:10.744Z,79.70
2018-03-18T21:53:38.407Z,80.00
2018-03-18T21:56:06.019Z,79.90
2018-03-18T21:58:33.657Z,80.10
2018-03-18T22:01:01.261Z,80.20
2018-03-18T22:03:28.928Z,80.30
2018-03-18T22:05:56.584Z,80.10
2018-03-18T22:08:24.211Z,80.50
2018-03-18T22:10:52.252Z,80.30
2018-03-18T22:13:19.901Z,80.20
2018-03-18T22:15:47.756Z,80.50
2018-03-18T22:18:15.369Z,80.50
2018-03-18T22:20:42.985Z,80.30
2018-03-18T22:23:10.786Z,80.80
2018-03-18T22:25:38.784Z,80.80
2018-03-18T22:28:06.405Z,80.80
2018-03-18T22:30:34.004Z,80.80
2018-03-18T22:33:01.606Z,80.60
2018-03-18T22:35:29.259Z,80.70
2018-03-18T22:37:56.887Z,80.60
2018-03-18T22:40:24.492Z,80.80
2018-03-18T22:42:52.074Z,80.70
2018-03-18T22:45:19.652Z,80.60
2018-03-18T22:47:47.575Z,80.70
2018-03-18T22:50:15.187Z,80.70
2018-03-18T22:52:42.755Z,80.50
2018-03-18T22:55:10.361Z,80.80
2018-03-18T22:57:37.971Z,80.70
2018-03-18T23:00:05.746Z,80.60
2018-03-18T23:02:33.350Z,80.90
2018-03-18T23:05:00.964Z,80.80
2018-03-18T23:07:28.826Z,80.90
2018-03-18T23:09:56.490Z,80.90
2018-03-18T23:12:24.093Z,80.80
2018-03-18T23:14:51.683Z,80.80
2018-03-18T23:17:19.283Z,80.70
2018-03-18T23:19:46.913Z,80.70
2018-03-18T23:22:14.526Z,80.60
2018-03-18T23:24:42.167Z,80.70
2018-03-18T23:27:09.756Z,80.80
2018-03-18T23:29:37.672Z,80.80
2018-03-18T23:32:05.307Z,80.80
2018-03-18T23:34:33.197Z,80.80
2018-03-18T23:37:00.856Z,80.70
2018-03-18T23:39:28.421Z,80.80
2018-03-18T23:41:56.178Z,80.90
2018-03-18T23:44:23.810Z,80.90
2018-03-18T23:46:51.417Z,81.20
2018-03-18T23:49:19.162Z,81.00
2018-03-18T23:51:46.780Z,81.10
2018-03-18T23:54:14.442Z,81.10
2018-03-18T23:56:42.245Z,80.90
2018-03-18T23:59:09.892Z,80.70
